Time;durP1;ratioP1;P1;durP2;ratioP2;P2;SDS_P1;SDS_P2;PMS_P1;PMS_P2;Temp;Humidity;BMP_temperature;BMP_pressure;BME280_temperature;BME280_humidity;BME280_pressure;Samples;Min_cycle;Max_cycle;Signal;HPM_P1;HPM_P2
2022/04/01 00:01:14;;;;;;;9.53;8.53;;;4.50;32.50;;;;;;5070408;28;20161;-79
2022/04/01 00:03:40;;;;;;;9.63;8.63;;;4.60;34.60;;;;;;5075035;28;20146;-83
2022/04/01 00:06:09;;;;;;;11.07;10.07;;;4.60;31.60;;;;;;5076944;28;20168;-84
2022/04/01 00:08:34;;;;;;;10.53;9.50;;;4.60;31.40;;;;;;5052177;28;20231;-85
2022/04/01 00:11:03;;;;;;;10.13;9.23;;;4.60;30.30;;;;;;5059522;28;20299;-84
2022/04/01 00:13:29;;;;;;;9.67;8.77;;;4.60;29.60;;;;;;5058070;28;20185;-81
2022/04/01 00:15:54;;;;;;;10.23;9.13;;;4.50;29.70;;;;;;5058052;28;20637;-84
2022/04/01 00:18:20;;;;;;;11.40;10.20;;;4.50;29.80;;;;;;5059474;28;20575;-78
2022/04/01 00:20:46;;;;;;;12.00;10.80;;;4.50;35.30;;;;;;5077379;28;20157;-82
2022/04/01 00:23:12;;;;;;;11.23;9.87;;;4.40;38.00;;;;;;5067351;28;20172;-84
2022/04/01 00:25:39;;;;;;;14.10;12.70;;;4.40;36.50;;;;;;5061535;28;20161;-85
2022/04/01 00:28:07;;;;;;;14.37;12.97;;;4.50;44.20;;;;;;5057635;28;20161;-86
2022/04/01 00:30:38;;;;;;;14.20;12.70;;;4.50;45.20;;;;;;5058870;28;20184;-87
2022/04/01 00:33:08;;;;;;;15.37;12.87;;;4.40;42.80;;;;;;5059752;28;20157;-83
2022/04/01 00:35:35;;;;;;;16.23;14.53;;;4.30;44.40;;;;;;5062410;28;20173;-80
2022/04/01 00:38:00;;;;;;;13.77;11.93;;;4.30;50.30;;;;;;5062668;28;20205;-83
2022/04/01 00:40:26;;;;;;;12.90;10.87;;;4.30;49.80;;;;;;5065463;28;20220;-84
2022/04/01 00:42:53;;;;;;;19.73;17.23;;;4.20;53.20;;;;;;5065508;28;20195;-83
2022/04/01 00:45:18;;;;;;;20.23;18.03;;;4.20;58.00;;;;;;5060473;28;20165;-83
2022/04/01 00:47:44;;;;;;;19.93;17.43;;;4.30;60.50;;;;;;5058038;28;20181;-86
2022/04/01 00:50:10;;;;;;;19.63;17.53;;;4.40;59.00;;;;;;5057291;28;20203;-86
2022/04/01 00:52:36;;;;;;;19.20;17.20;;;4.40;57.40;;;;;;5057382;28;20252;-85
2022/04/01 00:55:05;;;;;;;21.97;16.87;;;4.50;57.20;;;;;;5056857;28;20203;-85
2022/04/01 00:57:33;;;;;;;18.23;16.40;;;4.50;57.90;;;;;;5057087;28;20242;-83
2022/04/01 00:59:59;;;;;;;17.40;15.60;;;4.50;59.00;;;;;;5057077;28;20177;-84
2022/04/01 01:02:25;;;;;;;13.80;12.33;;;4.50;58.40;;;;;;5039085;28;20711;-85
2022/04/01 01:04:50;;;;;;;10.80;9.47;;;4.40;55.50;;;;;;5057211;28;20177;-86
2022/04/01 01:07:16;;;;;;;9.07;7.97;;;4.30;54.70;;;;;;5056917;28;20200;-84
2022/04/01 01:09:43;;;;;;;7.43;6.67;;;4.10;56.60;;;;;;5057200;28;20586;-85
2022/04/01 01:12:11;;;;;;;9.40;8.40;;;4.00;60.40;;;;;;5057871;28;20200;-86
2022/04/01 01:14:39;;;;;;;8.80;7.90;;;3.90;64.80;;;;;;5055936;28;20161;-84
2022/04/01 01:17:10;;;;;;;9.83;8.83;;;3.90;67.30;;;;;;5056294;28;20173;-85
2022/04/01 01:19:36;;;;;;;9.17;7.63;;;3.90;70.10;;;;;;5039702;28;20181;-85
2022/04/01 01:22:02;;;;;;;9.80;8.80;;;3.90;71.20;;;;;;5059566;28;20227;-83
2022/04/01 01:24:35;;;;;;;9.73;8.73;;;3.90;74.60;;;;;;5058576;28;20169;-85
2022/04/01 01:27:02;;;;;;;8.80;7.27;;;3.80;74.60;;;;;;5056070;28;20184;-84
2022/04/01 01:29:29;;;;;;;9.23;7.40;;;3.70;75.30;;;;;;5055974;28;20169;-85
2022/04/01 01:32:00;;;;;;;9.57;8.53;;;3.60;79.50;;;;;;5039326;28;20177;-83
2022/04/01 01:34:27;;;;;;;12.57;11.37;;;3.60;83.00;;;;;;5056525;28;20169;-84
2022/04/01 01:36:54;;;;;;;10.93;9.93;;;3.60;85.70;;;;;;5059266;28;20629;-82
2022/04/01 01:39:20;;;;;;;11.80;10.60;;;3.60;86.10;;;;;;5056218;28;20268;-81
2022/04/01 01:41:47;;;;;;;11.37;10.17;;;3.70;86.50;;;;;;5056808;28;20169;-87
2022/04/01 01:44:14;;;;;;;9.77;8.77;;;3.60;83.40;;;;;;5062023;28;20165;-86
2022/04/01 01:46:40;;;;;;;8.90;8.00;;;3.60;83.20;;;;;;5065763;28;20169;-80
2022/04/01 01:49:06;;;;;;;10.30;8.93;;;3.50;82.10;;;;;;5046903;28;20180;-83
2022/04/01 01:57:00;;;;;;;10.33;9.23;;;3.40;90.50;;;;;;5057677;28;20735;-84
2022/04/01 01:59:27;;;;;;;9.97;8.43;;;3.40;90.30;;;;;;5058462;28;20283;-82
2022/04/01 02:01:53;;;;;;;8.53;7.63;;;3.30;90.60;;;;;;5058926;28;20229;-86
2022/04/01 02:04:23;;;;;;;9.07;8.17;;;3.30;90.20;;;;;;5055297;28;20200;-84
2022/04/01 02:06:49;;;;;;;7.33;6.47;;;3.20;90.00;;;;;;5055567;28;20168;-86
2022/04/01 02:09:16;;;;;;;7.70;6.63;;;3.20;89.70;;;;;;5057067;28;20185;-85
2022/04/01 02:11:43;;;;;;;8.03;6.67;;;3.20;89.80;;;;;;5066356;28;20167;-84
2022/04/01 02:14:09;;;;;;;7.37;6.23;;;3.20;90.20;;;;;;5077890;28;20169;-83
2022/04/01 02:16:35;;;;;;;8.13;7.30;;;3.20;90.40;;;;;;5072899;28;20169;-82
2022/04/01 02:19:09;;;;;;;8.50;7.43;;;3.20;90.20;;;;;;5058247;28;20204;-85
2022/04/01 02:21:35;;;;;;;6.27;5.40;;;3.20;88.50;;;;;;5056844;28;20617;-84
2022/04/01 02:24:00;;;;;;;6.13;4.83;;;3.10;86.60;;;;;;5064411;28;20187;-80
2022/04/01 02:26:26;;;;;;;5.87;5.27;;;3.20;87.50;;;;;;5073317;28;20181;-75
2022/04/01 02:28:54;;;;;;;5.30;4.60;;;3.10;89.00;;;;;;5073030;28;20173;-82
2022/04/01 02:31:20;;;;;;;6.57;5.43;;;3.10;85.20;;;;;;5064128;28;20172;-83
2022/04/01 02:33:59;;;;;;;6.60;5.70;;;3.10;85.60;;;;;;5056622;28;20165;-82
2022/04/01 02:36:25;;;;;;;6.33;5.33;;;3.10;87.00;;;;;;5054657;28;20164;-84
2022/04/01 02:38:53;;;;;;;5.40;4.90;;;3.10;88.40;;;;;;5061325;28;20268;-83
2022/04/01 02:41:18;;;;;;;6.83;4.43;;;3.10;88.70;;;;;;5061944;28;20633;-83
2022/04/01 02:43:44;;;;;;;6.20;5.60;;;3.10;88.90;;;;;;5067391;28;20236;-79
2022/04/01 02:46:10;;;;;;;6.10;4.43;;;3.10;90.70;;;;;;5072234;28;20165;-84
2022/04/01 02:48:36;;;;;;;4.40;3.73;;;3.20;91.00;;;;;;5037267;28;20637;-85
2022/04/01 02:51:04;;;;;;;5.03;4.53;;;3.00;91.20;;;;;;5037989;28;20179;-85
2022/04/01 02:53:36;;;;;;;4.23;3.70;;;2.90;92.50;;;;;;5054696;28;20687;-83
2022/04/01 02:56:02;;;;;;;4.30;3.90;;;2.90;93.10;;;;;;5037046;28;20176;-84
2022/04/01 02:58:28;;;;;;;4.27;3.80;;;2.80;93.60;;;;;;5036643;28;20247;-86
2022/04/01 03:00:54;;;;;;;4.73;4.23;;;2.70;93.80;;;;;;5037852;28;20169;-84
2022/04/01 03:03:21;;;;;;;7.90;4.20;;;2.70;94.70;;;;;;5071698;28;20184;-82
2022/04/01 03:05:46;;;;;;;5.43;4.40;;;2.70;95.50;;;;;;5077733;28;20168;-76
2022/04/01 03:08:12;;;;;;;5.63;4.30;;;2.70;96.00;;;;;;5075302;28;20176;-80
2022/04/01 03:10:40;;;;;;;6.67;4.50;;;2.70;95.70;;;;;;5055681;28;20176;-84
2022/04/01 03:13:09;;;;;;;4.27;3.70;;;2.70;96.10;;;;;;5055567;28;20280;-86
2022/04/01 03:15:39;;;;;;;4.90;4.17;;;2.70;96.00;;;;;;5055127;28;20192;-85
2022/04/01 03:18:05;;;;;;;4.43;4.03;;;2.70;96.20;;;;;;5054769;28;20649;-84
2022/04/01 03:20:35;;;;;;;4.20;3.57;;;2.70;96.60;;;;;;5037767;28;20176;-84
2022/04/01 03:23:02;;;;;;;4.43;3.63;;;2.60;96.60;;;;;;5056245;28;20569;-84
2022/04/01 03:25:32;;;;;;;5.10;4.57;;;2.60;96.90;;;;;;5036589;28;20547;-83
2022/04/01 03:28:00;;;;;;;6.43;3.77;;;2.60;96.80;;;;;;5054626;28;20164;-84
2022/04/01 03:30:26;;;;;;;4.90;4.07;;;2.50;96.70;;;;;;5037959;28;20175;-86
2022/04/01 03:32:51;;;;;;;5.87;4.70;;;2.60;97.10;;;;;;5048116;28;20224;-81
2022/04/01 03:35:19;;;;;;;4.67;4.00;;;2.60;97.20;;;;;;5073700;28;20169;-81
2022/04/01 03:37:45;;;;;;;5.63;5.00;;;2.60;97.20;;;;;;5069436;28;20197;-85
2022/04/01 03:40:16;;;;;;;5.50;4.40;;;2.60;97.30;;;;;;5056311;28;20165;-85
2022/04/01 03:42:45;;;;;;;6.53;5.87;;;2.60;97.40;;;;;;5056856;28;20166;-87
2022/04/01 03:45:12;;;;;;;7.17;6.47;;;2.60;97.80;;;;;;5055072;28;20162;-86
2022/04/01 03:47:52;;;;;;;7.53;6.80;;;2.60;97.90;;;;;;5054842;28;20177;-81
2022/04/01 03:50:29;;;;;;;6.90;6.17;;;2.50;98.10;;;;;;5055554;28;20168;-81
2022/04/01 03:53:06;;;;;;;5.97;5.27;;;2.50;98.30;;;;;;5038167;28;20538;-84
2022/04/01 03:55:35;;;;;;;6.97;5.97;;;2.50;98.40;;;;;;5056361;28;20211;-83
2022/04/01 03:58:06;;;;;;;5.70;4.33;;;2.50;98.40;;;;;;5059021;28;20200;-85
2022/04/01 04:00:32;;;;;;;6.50;5.90;;;2.40;98.30;;;;;;5057358;28;20228;-83
2022/04/01 04:02:59;;;;;;;6.97;5.33;;;2.30;98.50;;;;;;5057274;28;20207;-85
2022/04/01 04:05:30;;;;;;;4.97;3.97;;;2.30;98.60;;;;;;5059733;28;20219;-82
2022/04/01 04:07:57;;;;;;;6.30;5.70;;;2.30;98.90;;;;;;5068408;28;20168;-85
2022/04/01 04:10:27;;;;;;;5.73;5.07;;;2.20;99.00;;;;;;5076638;28;20153;-82
2022/04/01 04:12:56;;;;;;;4.70;3.83;;;2.20;99.20;;;;;;5073310;28;20215;-85
2022/04/01 04:15:23;;;;;;;6.93;6.23;;;2.20;99.40;;;;;;5076365;28;20173;-83
2022/04/01 04:17:54;;;;;;;4.43;3.97;;;2.20;99.70;;;;;;5078849;28;20272;-85
2022/04/01 04:20:38;;;;;;;6.37;5.77;;;2.30;99.90;;;;;;5075996;28;20627;-79
2022/04/01 04:23:28;;;;;;;4.93;4.10;;;2.20;99.90;;;;;;5071745;28;20193;-86
2022/04/01 04:26:15;;;;;;;6.33;5.73;;;2.20;99.90;;;;;;5062850;28;20154;-84
2022/04/01 04:28:48;;;;;;;5.83;5.10;;;2.10;99.90;;;;;;5074010;28;20228;-84
2022/04/01 04:31:14;;;;;;;6.57;5.47;;;2.20;99.90;;;;;;5063703;28;20153;-82
2022/04/01 04:33:46;;;;;;;6.30;5.40;;;2.10;99.90;;;;;;5078951;28;20169;-82
2022/04/01 04:36:17;;;;;;;7.00;5.47;;;2.10;99.90;;;;;;5074735;28;20175;-80
2022/04/01 04:38:46;;;;;;;6.33;5.43;;;2.00;99.90;;;;;;5072257;28;20199;-83
2022/04/01 04:41:12;;;;;;;4.67;3.77;;;2.20;99.90;;;;;;5066025;28;20184;-84
2022/04/01 04:43:40;;;;;;;6.13;5.50;;;2.10;99.90;;;;;;5040445;28;20173;-81
2022/04/01 04:46:07;;;;;;;5.37;4.77;;;2.10;99.90;;;;;;5057356;28;20677;-86
2022/04/01 04:48:34;;;;;;;5.63;5.03;;;2.10;99.90;;;;;;5057612;28;20175;-77
2022/04/01 04:51:02;;;;;;;5.33;4.73;;;2.10;99.90;;;;;;5063146;28;20153;-82
2022/04/01 04:53:31;;;;;;;5.80;5.03;;;2.10;99.90;;;;;;5061387;28;20181;-83
2022/04/01 04:56:04;;;;;;;7.80;7.00;;;2.00;99.90;;;;;;5042257;28;20667;-82
2022/04/01 04:58:39;;;;;;;7.97;6.60;;;2.10;99.90;;;;;;5056945;28;20672;-84
2022/04/01 05:01:24;;;;;;;6.40;5.60;;;2.00;99.90;;;;;;5059025;28;20173;-86
2022/04/01 05:04:10;;;;;;;6.07;5.47;;;2.00;99.90;;;;;;5059666;28;20165;-85
2022/04/01 05:06:48;;;;;;;7.70;6.80;;;2.00;99.90;;;;;;5074173;28;20175;-77
2022/04/01 05:09:31;;;;;;;7.60;6.83;;;2.00;99.90;;;;;;5056051;28;20191;-83
2022/04/01 05:12:12;;;;;;;10.07;9.13;;;1.90;99.90;;;;;;5054567;28;20181;-84
2022/04/01 05:15:04;;;;;;;9.47;8.47;;;1.90;99.90;;;;;;5057595;28;20184;-83
2022/04/01 05:17:35;;;;;;;8.90;8.00;;;1.90;99.90;;;;;;5070788;28;20169;-80
2022/04/01 05:20:04;;;;;;;12.00;9.43;;;1.90;99.90;;;;;;5046774;28;20168;-84
2022/04/01 05:22:42;;;;;;;9.70;8.70;;;1.80;99.90;;;;;;5046910;28;20205;-83
2022/04/01 05:25:20;;;;;;;9.93;8.10;;;1.80;99.90;;;;;;5064412;28;20181;-85
2022/04/01 05:27:53;;;;;;;10.40;9.20;;;1.80;99.90;;;;;;5062316;28;20157;-86
2022/04/01 05:30:23;;;;;;;11.40;9.87;;;1.80;99.90;;;;;;5064006;28;20157;-84
2022/04/01 05:33:15;;;;;;;10.40;8.63;;;1.80;99.90;;;;;;5068216;28;20229;-80
2022/04/01 05:35:43;;;;;;;12.20;9.40;;;1.80;99.90;;;;;;5042761;28;20173;-82
2022/04/01 05:38:10;;;;;;;10.77;9.07;;;1.80;99.90;;;;;;5042656;28;20222;-84
2022/04/01 05:40:38;;;;;;;11.83;9.60;;;1.70;99.90;;;;;;5043028;28;20162;-82
2022/04/01 05:43:05;;;;;;;10.77;9.67;;;1.70;99.90;;;;;;5058933;28;20165;-84
2022/04/01 05:45:31;;;;;;;10.80;9.43;;;1.70;99.90;;;;;;5056121;28;20172;-82
2022/04/01 05:47:59;;;;;;;10.93;9.83;;;1.60;99.90;;;;;;5077184;28;20187;-82
2022/04/01 05:50:28;;;;;;;9.77;7.43;;;1.60;99.90;;;;;;5078306;28;20209;-84
2022/04/01 05:52:55;;;;;;;10.73;9.00;;;1.60;99.90;;;;;;5076382;28;20172;-85
2022/04/01 05:55:23;;;;;;;10.80;9.30;;;1.70;99.90;;;;;;5080157;28;20169;-86
2022/04/01 05:57:49;;;;;;;12.67;10.70;;;1.70;99.90;;;;;;5076009;28;20188;-87
2022/04/01 06:00:15;;;;;;;10.43;9.37;;;1.70;99.90;;;;;;5074371;28;20548;-83
2022/04/01 06:03:12;;;;;;;8.73;7.83;;;1.70;99.90;;;;;;5076130;28;20173;-82
2022/04/01 06:05:44;;;;;;;10.27;9.07;;;1.60;99.90;;;;;;5077251;28;20200;-80
2022/04/01 06:08:35;;;;;;;9.30;8.33;;;1.70;99.90;;;;;;5072884;28;20264;-84
2022/04/01 06:11:19;;;;;;;8.80;6.53;;;1.70;99.90;;;;;;5059252;28;20161;-86
2022/04/01 06:14:25;;;;;;;8.53;6.57;;;1.80;99.90;;;;;;5059180;28;20184;-86
2022/04/01 06:16:59;;;;;;;8.67;7.67;;;1.60;99.90;;;;;;5062984;28;20256;-85
2022/04/01 06:19:45;;;;;;;8.30;7.47;;;1.60;99.90;;;;;;5041967;28;20203;-87
2022/04/01 06:22:16;;;;;;;12.50;9.73;;;1.60;99.90;;;;;;5059805;28;20164;-83
2022/04/01 06:24:49;;;;;;;8.07;7.13;;;1.60;99.90;;;;;;5042692;28;20169;-87
2022/04/01 06:27:22;;;;;;;12.77;9.57;;;1.60;99.90;;;;;;5074909;28;20149;-79
2022/04/01 06:29:59;;;;;;;11.53;8.73;;;1.60;99.90;;;;;;5073712;28;20195;-81
2022/04/01 06:33:02;;;;;;;10.37;8.60;;;1.60;99.90;;;;;;5071936;28;20267;-77
2022/04/01 06:35:40;;;;;;;7.83;6.30;;;1.60;99.90;;;;;;5077551;28;20175;-78
2022/04/01 06:38:07;;;;;;;10.90;9.80;;;1.60;99.90;;;;;;5075900;28;20177;-79
2022/04/01 06:40:55;;;;;;;9.03;7.20;;;1.60;99.90;;;;;;5056420;28;20173;-77
2022/04/01 06:43:27;;;;;;;10.13;8.80;;;1.60;99.90;;;;;;5074296;28;20160;-79
2022/04/01 06:45:53;;;;;;;8.83;7.93;;;1.50;99.90;;;;;;5070967;28;20179;-76
2022/04/01 06:48:33;;;;;;;12.10;9.13;;;1.50;99.90;;;;;;5068576;28;20153;-80
2022/04/01 06:51:02;;;;;;;8.80;6.90;;;1.50;99.90;;;;;;5042377;28;20307;-85
2022/04/01 06:53:31;;;;;;;11.57;10.37;;;1.50;99.90;;;;;;5060375;28;20172;-82
2022/04/01 06:56:00;;;;;;;11.40;9.17;;;1.50;99.90;;;;;;5058734;28;20157;-84
2022/04/01 06:58:33;;;;;;;10.83;9.73;;;1.50;99.90;;;;;;5057921;28;20189;-78
2022/04/01 07:00:59;;;;;;;13.57;11.33;;;1.50;99.90;;;;;;5058665;28;20157;-88
2022/04/01 07:03:25;;;;;;;11.00;9.40;;;1.60;99.90;;;;;;5059615;28;20172;-83
2022/04/01 07:05:55;;;;;;;10.77;9.67;;;1.50;99.90;;;;;;5057227;28;20169;-87
2022/04/01 07:08:21;;;;;;;12.03;10.20;;;1.50;99.90;;;;;;5059693;28;20724;-82
2022/04/01 07:10:51;;;;;;;11.10;9.83;;;1.60;99.90;;;;;;5058093;28;20189;-80
2022/04/01 07:13:16;;;;;;;9.37;8.37;;;1.50;99.90;;;;;;5056160;28;20295;-82
2022/04/01 07:15:45;;;;;;;7.87;6.63;;;1.50;99.90;;;;;;5057582;28;20193;-88
2022/04/01 07:18:10;;;;;;;10.27;8.87;;;1.60;99.90;;;;;;5026422;28;20227;-86
2022/04/01 07:20:37;;;;;;;8.67;7.33;;;1.60;99.90;;;;;;5059553;28;20172;-85
2022/04/01 07:23:04;;;;;;;8.73;7.83;;;1.60;99.90;;;;;;5057368;28;20169;-87
2022/04/01 07:25:30;;;;;;;9.10;6.50;;;1.60;99.90;;;;;;5057855;28;20161;-85
2022/04/01 07:27:56;;;;;;;8.93;7.53;;;1.70;99.90;;;;;;5042424;28;20212;-82
2022/04/01 07:30:22;;;;;;;9.00;8.03;;;1.70;99.90;;;;;;5069571;28;20199;-86
2022/04/01 07:32:55;;;;;;;7.93;6.73;;;1.80;99.90;;;;;;5074112;28;20187;-83
2022/04/01 07:35:21;;;;;;;11.93;6.70;;;1.80;99.90;;;;;;5073069;28;20283;-85
2022/04/01 07:37:47;;;;;;;9.37;7.73;;;1.80;99.90;;;;;;5076725;28;20200;-85
2022/04/01 07:40:13;;;;;;;9.03;7.37;;;1.80;99.90;;;;;;5067258;28;20177;-85
2022/04/01 07:42:41;;;;;;;11.07;8.13;;;1.90;99.90;;;;;;5038870;28;20617;-87
2022/04/01 07:45:08;;;;;;;7.23;6.37;;;1.80;99.90;;;;;;5039671;28;20173;-83
2022/04/01 07:47:35;;;;;;;5.50;4.90;;;1.90;99.90;;;;;;5057373;28;20173;-88
2022/04/01 07:50:03;;;;;;;8.73;6.27;;;1.80;99.90;;;;;;5079372;28;20184;-86
2022/04/01 07:52:29;;;;;;;12.17;8.47;;;1.80;99.90;;;;;;5081190;28;20210;-84
2022/04/01 07:54:55;;;;;;;7.23;5.70;;;1.90;99.90;;;;;;5080527;28;20581;-83
2022/04/01 07:57:21;;;;;;;8.63;7.53;;;1.80;99.90;;;;;;5080324;28;20617;-88
2022/04/01 07:59:48;;;;;;;8.13;6.63;;;1.80;99.90;;;;;;5064020;28;20174;-88
2022/04/01 08:02:16;;;;;;;8.80;7.17;;;1.80;99.80;;;;;;5080241;28;20172;-88
2022/04/01 08:04:41;;;;;;;7.53;6.20;;;1.90;99.90;;;;;;5080476;28;20628;-84
2022/04/01 08:07:10;;;;;;;11.20;6.03;;;1.90;99.90;;;;;;5080303;28;20255;-86
2022/04/01 08:09:36;;;;;;;9.70;5.03;;;1.80;99.80;;;;;;5079073;28;20245;-86
2022/04/01 08:12:03;;;;;;;5.30;4.80;;;1.80;99.50;;;;;;5080473;28;20188;-83
2022/04/01 08:14:28;;;;;;;7.33;6.60;;;1.80;99.00;;;;;;5079538;28;20180;-83
2022/04/01 08:16:54;;;;;;;7.27;4.93;;;1.80;99.10;;;;;;5081649;28;20183;-88
2022/04/01 08:19:22;;;;;;;6.80;5.90;;;1.90;99.00;;;;;;5080256;28;20216;-76
2022/04/01 08:21:49;;;;;;;5.93;5.07;;;1.80;98.90;;;;;;5088726;28;20173;-87
2022/04/01 08:24:18;;;;;;;8.00;7.20;;;1.90;99.30;;;;;;5081562;28;20168;-84
2022/04/01 08:26:47;;;;;;;6.73;5.57;;;1.90;99.20;;;;;;5076850;28;20172;-80
2022/04/01 08:29:13;;;;;;;7.93;6.13;;;1.90;99.30;;;;;;5078637;28;20179;-86
2022/04/01 08:31:40;;;;;;;6.03;4.73;;;1.90;98.60;;;;;;5086200;28;20165;-78
2022/04/01 08:34:06;;;;;;;7.00;4.87;;;1.90;98.40;;;;;;5092967;28;20172;-85
2022/04/01 08:36:37;;;;;;;8.73;4.93;;;1.90;98.10;;;;;;5090532;28;20636;-85
2022/04/01 08:39:06;;;;;;;6.27;5.50;;;1.90;97.90;;;;;;5098282;28;20192;-75
2022/04/01 08:41:40;;;;;;;6.63;5.20;;;1.90;97.60;;;;;;5098061;28;20186;-86
2022/04/01 08:44:18;;;;;;;5.73;3.40;;;1.90;97.40;;;;;;5095619;28;20520;-81
2022/04/01 08:46:57;;;;;;;5.50;4.37;;;1.90;96.80;;;;;;5089987;28;20164;-85
2022/04/01 08:52:32;;;;;;;6.73;5.20;;;1.90;96.70;;;;;;5088769;28;20168;-80
2022/04/01 08:55:07;;;;;;;5.50;3.80;;;2.00;96.50;;;;;;5085662;28;20164;-77
2022/04/01 08:57:41;;;;;;;4.43;3.50;;;1.90;96.10;;;;;;5094623;28;20151;-81
2022/04/01 09:00:16;;;;;;;7.57;4.93;;;2.00;96.10;;;;;;5096192;28;20203;-77
2022/04/01 09:03:20;;;;;;;4.57;3.30;;;2.00;96.00;;;;;;5095466;28;20171;-77
2022/04/01 09:05:51;;;;;;;5.13;4.27;;;2.00;96.10;;;;;;5076549;28;20183;-78
2022/04/01 09:08:23;;;;;;;4.57;3.63;;;2.00;95.60;;;;;;5087834;28;20204;-86
2022/04/01 09:11:18;;;;;;;7.37;5.10;;;2.00;95.50;;;;;;5085008;28;20164;-86
2022/04/01 09:14:08;;;;;;;6.63;5.10;;;2.10;96.00;;;;;;5071630;28;20211;-82
2022/04/01 09:16:41;;;;;;;5.83;4.60;;;2.10;95.70;;;;;;5078733;28;20152;-87
2022/04/01 09:19:09;;;;;;;9.23;4.43;;;2.10;95.00;;;;;;5078679;28;20600;-84
2022/04/01 09:21:39;;;;;;;4.60;3.50;;;2.20;95.30;;;;;;5078622;28;20256;-86
2022/04/01 09:24:05;;;;;;;4.73;3.50;;;2.20;94.40;;;;;;5078064;28;20651;-86
2022/04/01 09:26:32;;;;;;;5.90;3.90;;;2.20;94.40;;;;;;5077730;28;20271;-84
2022/04/01 09:28:59;;;;;;;7.33;5.13;;;2.20;94.30;;;;;;5059808;28;20185;-87
2022/04/01 09:31:29;;;;;;;4.20;3.73;;;2.30;94.50;;;;;;5077840;28;20647;-88
2022/04/01 09:33:55;;;;;;;5.30;4.07;;;2.30;93.90;;;;;;5078034;28;20164;-86
2022/04/01 09:36:26;;;;;;;6.40;4.30;;;2.20;92.60;;;;;;5077362;28;20297;-86
2022/04/01 09:39:02;;;;;;;5.13;3.80;;;2.30;92.90;;;;;;5076033;28;20235;-88
2022/04/01 09:41:42;;;;;;;5.83;3.87;;;2.30;93.30;;;;;;5077823;28;20175;-86
2022/04/01 09:44:21;;;;;;;4.70;3.73;;;2.40;92.90;;;;;;5077581;28;20665;-79
2022/04/01 09:46:52;;;;;;;9.03;4.60;;;2.30;92.70;;;;;;5077793;28;20164;-86
2022/04/01 09:49:32;;;;;;;4.93;3.20;;;2.40;93.60;;;;;;5076743;28;20175;-84
2022/04/01 09:51:57;;;;;;;6.03;4.13;;;2.30;93.50;;;;;;5077490;28;20174;-82
2022/04/01 09:54:26;;;;;;;5.17;3.67;;;2.40;94.20;;;;;;5077794;28;20247;-83
2022/04/01 09:56:54;;;;;;;4.80;3.93;;;2.30;93.10;;;;;;5076900;28;20191;-84
2022/04/01 09:59:23;;;;;;;4.70;3.47;;;2.40;93.90;;;;;;5077432;28;20203;-87
2022/04/01 10:01:49;;;;;;;4.87;4.23;;;2.30;93.00;;;;;;5079242;28;20172;-86
2022/04/01 10:04:15;;;;;;;6.37;5.13;;;2.40;93.60;;;;;;5079803;28;20206;-85
2022/04/01 10:06:41;;;;;;;4.63;3.97;;;2.40;93.90;;;;;;5079547;28;20184;-87
2022/04/01 10:09:11;;;;;;;7.63;4.93;;;2.40;93.50;;;;;;5083065;28;20191;-88
2022/04/01 10:11:42;;;;;;;5.03;3.53;;;2.40;93.00;;;;;;5080027;28;20196;-81
2022/04/01 10:14:12;;;;;;;5.80;3.70;;;2.40;92.30;;;;;;5079997;28;20167;-87
2022/04/01 10:16:45;;;;;;;4.20;3.47;;;2.30;92.30;;;;;;5081164;28;20187;-85
2022/04/01 10:19:23;;;;;;;7.87;4.43;;;2.40;92.90;;;;;;5089741;28;20226;-84
2022/04/01 10:21:54;;;;;;;6.47;4.97;;;2.40;92.30;;;;;;5096606;28;20156;-82
2022/04/01 10:24:36;;;;;;;6.53;3.70;;;2.50;91.70;;;;;;5094259;28;20303;-81
2022/04/01 10:27:05;;;;;;;3.67;3.07;;;2.40;91.00;;;;;;5093045;28;20160;-84
2022/04/01 10:29:37;;;;;;;5.57;4.13;;;2.40;91.20;;;;;;5080911;28;20145;-88
2022/04/01 10:32:41;;;;;;;5.27;4.13;;;2.50;91.70;;;;;;5078639;28;20239;-78
2022/04/01 10:35:21;;;;;;;7.23;4.00;;;2.50;90.70;;;;;;5086743;28;20172;-85
2022/04/01 10:37:52;;;;;;;6.33;4.63;;;2.50;90.90;;;;;;5080334;28;20203;-87
2022/04/01 10:40:18;;;;;;;7.93;4.70;;;2.60;91.20;;;;;;5079475;28;20546;-87
2022/04/01 10:42:46;;;;;;;6.23;4.47;;;2.60;90.50;;;;;;5080241;28;20172;-86
2022/04/01 10:45:22;;;;;;;6.83;4.67;;;2.60;90.30;;;;;;5077575;28;20171;-87
2022/04/01 10:51:37;;;;;;;6.67;5.00;;;2.60;90.00;;;;;;5093491;28;20190;-79
2022/04/01 10:54:23;;;;;;;5.57;3.67;;;2.70;90.00;;;;;;5091906;28;20212;-79
2022/04/01 10:57:06;;;;;;;3.30;2.63;;;2.80;87.70;;;;;;5084511;28;20178;-80
2022/04/01 10:59:42;;;;;;;5.60;3.47;;;2.60;85.90;;;;;;5090045;28;20188;-84
2022/04/01 11:02:09;;;;;;;6.97;4.07;;;2.80;86.10;;;;;;5085710;28;20179;-79
2022/04/01 11:04:40;;;;;;;7.53;3.90;;;2.70;86.70;;;;;;5089115;28;20168;-77
2022/04/01 11:07:14;;;;;;;7.47;4.63;;;2.70;87.70;;;;;;5091143;28;20153;-77
2022/04/01 11:09:53;;;;;;;5.10;3.90;;;2.70;85.80;;;;;;5087287;28;20188;-83
2022/04/01 11:12:50;;;;;;;6.33;3.40;;;2.70;85.30;;;;;;5086710;28;20202;-82
2022/04/01 11:15:24;;;;;;;6.00;2.77;;;2.60;82.00;;;;;;5087411;28;20236;-84
2022/04/01 11:17:57;;;;;;;3.87;2.30;;;2.60;80.50;;;;;;5076620;28;20195;-85
2022/04/01 11:20:32;;;;;;;4.50;3.13;;;2.60;80.00;;;;;;5075782;28;20168;-87
2022/04/01 11:22:59;;;;;;;5.43;3.23;;;2.70;81.30;;;;;;5076718;28;20153;-84
2022/04/01 11:25:25;;;;;;;4.93;3.53;;;2.70;82.20;;;;;;5077995;28;20153;-86
2022/04/01 11:27:57;;;;;;;6.90;2.57;;;2.70;80.90;;;;;;5079981;28;20188;-79
2022/04/01 11:30:28;;;;;;;7.97;3.83;;;2.80;81.40;;;;;;5078998;28;20164;-82
2022/04/01 11:32:58;;;;;;;5.97;3.80;;;2.70;79.00;;;;;;5093481;28;20153;-83
2022/04/01 11:35:30;;;;;;;3.40;2.53;;;2.70;79.20;;;;;;5092863;28;20248;-86
2022/04/01 11:37:58;;;;;;;4.63;2.43;;;2.70;79.10;;;;;;5084604;28;20230;-88
2022/04/01 11:40:27;;;;;;;5.90;2.63;;;2.70;79.00;;;;;;5080356;28;20277;-88
2022/04/01 11:43:09;;;;;;;4.87;3.33;;;2.70;78.10;;;;;;5080440;28;20164;-87
2022/04/01 11:45:43;;;;;;;5.30;3.37;;;2.80;79.30;;;;;;5080550;28;20263;-85
2022/04/01 11:48:22;;;;;;;5.47;3.43;;;2.90;78.10;;;;;;5081331;28;20176;-82
2022/04/01 11:50:54;;;;;;;4.47;2.97;;;3.00;77.90;;;;;;5062467;28;20233;-78
2022/04/01 11:53:24;;;;;;;4.73;3.27;;;2.90;75.70;;;;;;5082040;28;20172;-83
2022/04/01 11:55:50;;;;;;;11.43;4.00;;;3.00;76.70;;;;;;5080216;28;20160;-88
2022/04/01 11:58:16;;;;;;;6.33;3.07;;;3.10;76.90;;;;;;5080391;28;20585;-88
2022/04/01 12:00:42;;;;;;;5.77;3.40;;;3.20;76.50;;;;;;5080431;28;20165;-88
2022/04/01 12:03:11;;;;;;;5.83;3.97;;;3.10;73.50;;;;;;5080971;28;20223;-88
2022/04/01 12:05:41;;;;;;;5.07;3.20;;;3.20;74.50;;;;;;5080465;28;20206;-87
2022/04/01 12:10:57;;;;;;;4.13;3.10;;;3.20;73.90;;;;;;5079217;28;20175;-80
2022/04/01 12:13:25;;;;;;;6.57;3.40;;;3.30;72.40;;;;;;5080600;28;20287;-87
2022/04/01 12:15:52;;;;;;;5.43;3.40;;;3.30;72.70;;;;;;5063149;28;20169;-88
2022/04/01 12:18:23;;;;;;;4.10;2.63;;;3.30;71.40;;;;;;5080959;28;20223;-80
2022/04/01 12:20:55;;;;;;;4.20;3.07;;;3.30;69.60;;;;;;5062271;28;20172;-90
2022/04/01 12:23:25;;;;;;;3.97;2.60;;;3.30;64.60;;;;;;5081515;28;20164;-84
2022/04/01 12:25:53;;;;;;;4.30;3.07;;;3.30;70.10;;;;;;5081811;28;20173;-84
2022/04/01 12:28:24;;;;;;;6.40;3.00;;;3.40;69.10;;;;;;5080806;28;20185;-87
2022/04/01 12:30:52;;;;;;;4.70;3.33;;;3.40;66.30;;;;;;5081033;28;20162;-88
2022/04/01 12:33:30;;;;;;;7.97;3.23;;;3.40;67.80;;;;;;5080277;28;20644;-89
2022/04/01 12:36:04;;;;;;;8.37;4.03;;;3.40;68.20;;;;;;5073601;28;20477;-86
2022/04/01 12:38:35;;;;;;;5.93;3.67;;;3.40;69.00;;;;;;5070737;28;20275;-80
2022/04/01 12:41:14;;;;;;;5.83;3.30;;;3.70;73.70;;;;;;5066478;28;20169;-85
2022/04/01 12:43:47;;;;;;;4.63;3.00;;;3.70;66.70;;;;;;5053760;28;20169;-86
2022/04/01 12:46:19;;;;;;;2.63;1.93;;;3.70;70.30;;;;;;5078996;28;20214;-81
2022/04/01 12:48:55;;;;;;;4.67;2.80;;;3.50;63.50;;;;;;5079146;28;20171;-82
2022/04/01 12:51:22;;;;;;;5.33;3.40;;;3.40;65.20;;;;;;5068441;28;20628;-84
2022/04/01 12:54:08;;;;;;;3.80;2.50;;;3.40;65.90;;;;;;5085296;28;20640;-77
2022/04/01 12:56:37;;;;;;;6.77;2.70;;;3.40;65.80;;;;;;5091246;28;20196;-80
2022/04/01 12:59:16;;;;;;;4.93;3.30;;;3.40;67.30;;;;;;5081886;28;20226;-83
2022/04/01 13:01:44;;;;;;;6.57;3.33;;;3.40;68.40;;;;;;5081790;28;20165;-81
2022/04/01 13:04:17;;;;;;;3.83;2.63;;;3.50;69.40;;;;;;5072712;28;20293;-78
2022/04/01 13:07:02;;;;;;;6.50;3.73;;;3.50;67.00;;;;;;5090323;28;20168;-77
2022/04/01 13:09:32;;;;;;;3.53;2.87;;;3.50;67.00;;;;;;5094100;28;20693;-76
2022/04/01 13:12:00;;;;;;;3.30;2.73;;;3.60;64.20;;;;;;5078200;28;20286;-78
2022/04/01 13:14:34;;;;;;;3.90;2.80;;;3.50;56.20;;;;;;5076899;28;20175;-76
2022/04/01 13:17:22;;;;;;;3.17;2.37;;;3.60;56.20;;;;;;5094240;28;20227;-80
2022/04/01 13:19:47;;;;;;;4.93;2.57;;;3.60;52.30;;;;;;5091519;28;20192;-85
2022/04/01 13:22:13;;;;;;;5.23;2.90;;;3.60;54.60;;;;;;5086269;28;20609;-83
2022/04/01 13:24:50;;;;;;;3.50;2.67;;;3.80;54.10;;;;;;5084660;28;20188;-80
2022/04/01 13:27:18;;;;;;;6.10;3.37;;;3.70;52.00;;;;;;5077957;28;20179;-85